Terminal Aerodrome Forecast
Issued by NWS

Home | Current Version | Previous Version | Text Only | Print | Product List | Glossary Off
Versions: 1 2 3 4 5 6 7 8 9 10 11 12 13 14 15 16

215
FTUS43 KGRB 192337
TAFMTW
TAF
KMTW 192337Z 2000/2024 13007KT P6SM SCT060 BKN120
      TEMPO 2001/2003 6SM -TSRA BKN060CB
     FM200500 17005KT P6SM VCSH SCT050 BKN100 WS010/18030KT
      TEMPO 2008/2012 3SM -TSRA BKN025CB
     FM201200 28007KT 6SM -SHRA BKN030
     FM201800 10007KT P6SM SCT030 BKN100=

USA.gov is the U.S. government's official web portal to all federal, state and local government web resources and services.